sensor_id;sensor_type;location;lat;lon;timestamp;P1;durP1;ratioP1;P2;durP2;ratioP2
73841;SDS011;62184;52.006;5.924;2023-08-07T00:01:22;9.03;;;8.43;;
73841;SDS011;62184;52.006;5.924;2023-08-07T00:03:48;8.95;;;8.35;;
73841;SDS011;62184;52.006;5.924;2023-08-07T00:06:18;8.85;;;8.25;;
73841;SDS011;62184;52.006;5.924;2023-08-07T00:08:44;9.02;;;8.43;;
73841;SDS011;62184;52.006;5.924;2023-08-07T00:11:10;8.90;;;8.30;;
73841;SDS011;62184;52.006;5.924;2023-08-07T00:13:37;9.20;;;8.60;;
73841;SDS011;62184;52.006;5.924;2023-08-07T00:16:03;9.00;;;8.40;;
73841;SDS011;62184;52.006;5.924;2023-08-07T00:18:30;8.73;;;8.13;;
73841;SDS011;62184;52.006;5.924;2023-08-07T00:20:57;8.90;;;8.30;;
73841;SDS011;62184;52.006;5.924;2023-08-07T00:23:26;9.00;;;8.40;;
73841;SDS011;62184;52.006;5.924;2023-08-07T00:25:53;8.70;;;8.10;;
73841;SDS011;62184;52.006;5.924;2023-08-07T00:28:19;9.30;;;8.70;;
73841;SDS011;62184;52.006;5.924;2023-08-07T00:30:46;9.37;;;8.77;;
73841;SDS011;62184;52.006;5.924;2023-08-07T00:33:12;9.45;;;8.85;;
73841;SDS011;62184;52.006;5.924;2023-08-07T00:35:38;9.45;;;8.85;;
73841;SDS011;62184;52.006;5.924;2023-08-07T00:38:05;9.20;;;8.60;;
73841;SDS011;62184;52.006;5.924;2023-08-07T00:40:38;9.70;;;9.10;;
73841;SDS011;62184;52.006;5.924;2023-08-07T00:43:06;8.98;;;8.38;;
73841;SDS011;62184;52.006;5.924;2023-08-07T00:45:34;9.30;;;8.70;;
73841;SDS011;62184;52.006;5.924;2023-08-07T00:48:08;9.60;;;9.00;;
73841;SDS011;62184;52.006;5.924;2023-08-07T00:50:37;8.88;;;8.27;;
73841;SDS011;62184;52.006;5.924;2023-08-07T00:53:04;9.30;;;8.70;;
73841;SDS011;62184;52.006;5.924;2023-08-07T00:55:32;9.10;;;8.50;;
73841;SDS011;62184;52.006;5.924;2023-08-07T00:58:01;8.80;;;8.20;;
73841;SDS011;62184;52.006;5.924;2023-08-07T01:00:28;9.20;;;8.60;;
73841;SDS011;62184;52.006;5.924;2023-08-07T01:02:55;8.90;;;8.30;;
73841;SDS011;62184;52.006;5.924;2023-08-07T01:05:22;9.20;;;8.60;;
73841;SDS011;62184;52.006;5.924;2023-08-07T01:07:50;8.90;;;8.30;;
73841;SDS011;62184;52.006;5.924;2023-08-07T01:10:19;8.60;;;8.00;;
73841;SDS011;62184;52.006;5.924;2023-08-07T01:12:59;8.70;;;8.10;;
73841;SDS011;62184;52.006;5.924;2023-08-07T01:15:38;8.50;;;7.90;;
73841;SDS011;62184;52.006;5.924;2023-08-07T01:18:05;8.70;;;8.10;;
73841;SDS011;62184;52.006;5.924;2023-08-07T01:20:33;8.40;;;7.80;;
73841;SDS011;62184;52.006;5.924;2023-08-07T01:23:03;8.48;;;7.88;;
73841;SDS011;62184;52.006;5.924;2023-08-07T01:25:29;9.00;;;8.40;;
73841;SDS011;62184;52.006;5.924;2023-08-07T01:27:59;8.45;;;7.85;;
73841;SDS011;62184;52.006;5.924;2023-08-07T01:30:38;8.50;;;7.90;;
73841;SDS011;62184;52.006;5.924;2023-08-07T01:33:10;8.82;;;8.23;;
73841;SDS011;62184;52.006;5.924;2023-08-07T01:35:49;8.18;;;7.65;;
73841;SDS011;62184;52.006;5.924;2023-08-07T01:38:22;8.38;;;7.78;;
73841;SDS011;62184;52.006;5.924;2023-08-07T01:40:52;8.40;;;7.80;;
73841;SDS011;62184;52.006;5.924;2023-08-07T01:43:19;7.85;;;7.35;;
73841;SDS011;62184;52.006;5.924;2023-08-07T01:45:46;8.10;;;7.60;;
73841;SDS011;62184;52.006;5.924;2023-08-07T01:48:13;8.60;;;8.00;;
73841;SDS011;62184;52.006;5.924;2023-08-07T01:50:40;8.60;;;8.00;;
73841;SDS011;62184;52.006;5.924;2023-08-07T01:53:07;8.90;;;8.30;;
73841;SDS011;62184;52.006;5.924;2023-08-07T01:55:36;8.80;;;8.20;;
73841;SDS011;62184;52.006;5.924;2023-08-07T01:58:03;8.60;;;8.00;;
73841;SDS011;62184;52.006;5.924;2023-08-07T02:00:29;8.60;;;8.00;;
73841;SDS011;62184;52.006;5.924;2023-08-07T02:02:56;8.90;;;8.30;;
73841;SDS011;62184;52.006;5.924;2023-08-07T02:05:22;8.80;;;8.20;;
73841;SDS011;62184;52.006;5.924;2023-08-07T02:07:48;8.73;;;8.13;;
73841;SDS011;62184;52.006;5.924;2023-08-07T02:10:15;8.90;;;8.30;;
73841;SDS011;62184;52.006;5.924;2023-08-07T02:12:44;9.18;;;8.57;;
73841;SDS011;62184;52.006;5.924;2023-08-07T02:15:11;9.00;;;8.40;;
73841;SDS011;62184;52.006;5.924;2023-08-07T02:17:38;8.82;;;8.23;;
73841;SDS011;62184;52.006;5.924;2023-08-07T02:20:05;9.00;;;8.40;;
73841;SDS011;62184;52.006;5.924;2023-08-07T02:22:33;8.70;;;8.10;;
73841;SDS011;62184;52.006;5.924;2023-08-07T02:24:59;8.60;;;8.00;;
73841;SDS011;62184;52.006;5.924;2023-08-07T02:27:26;8.80;;;8.20;;
73841;SDS011;62184;52.006;5.924;2023-08-07T02:29:55;8.30;;;7.70;;
73841;SDS011;62184;52.006;5.924;2023-08-07T02:32:21;8.80;;;8.20;;
73841;SDS011;62184;52.006;5.924;2023-08-07T02:34:48;8.82;;;8.23;;
73841;SDS011;62184;52.006;5.924;2023-08-07T02:37:14;9.03;;;8.43;;
73841;SDS011;62184;52.006;5.924;2023-08-07T02:39:41;8.98;;;8.38;;
73841;SDS011;62184;52.006;5.924;2023-08-07T02:42:07;8.75;;;8.15;;
73841;SDS011;62184;52.006;5.924;2023-08-07T02:44:34;8.88;;;8.27;;
73841;SDS011;62184;52.006;5.924;2023-08-07T02:47:03;9.10;;;8.50;;
73841;SDS011;62184;52.006;5.924;2023-08-07T02:49:30;8.80;;;8.20;;
73841;SDS011;62184;52.006;5.924;2023-08-07T02:51:56;9.02;;;8.43;;
73841;SDS011;62184;52.006;5.924;2023-08-07T02:54:23;8.98;;;8.38;;
73841;SDS011;62184;52.006;5.924;2023-08-07T02:56:49;7.95;;;7.40;;
73841;SDS011;62184;52.006;5.924;2023-08-07T02:59:16;8.10;;;7.50;;
73841;SDS011;62184;52.006;5.924;2023-08-07T03:01:43;7.97;;;7.47;;
73841;SDS011;62184;52.006;5.924;2023-08-07T03:04:13;8.05;;;7.55;;
73841;SDS011;62184;52.006;5.924;2023-08-07T03:06:39;8.43;;;7.85;;
73841;SDS011;62184;52.006;5.924;2023-08-07T03:09:06;8.18;;;7.68;;
73841;SDS011;62184;52.006;5.924;2023-08-07T03:11:32;7.70;;;7.20;;
73841;SDS011;62184;52.006;5.924;2023-08-07T03:13:59;7.78;;;7.28;;
73841;SDS011;62184;52.006;5.924;2023-08-07T03:16:25;7.60;;;7.10;;
73841;SDS011;62184;52.006;5.924;2023-08-07T03:18:52;7.78;;;7.28;;
73841;SDS011;62184;52.006;5.924;2023-08-07T03:21:21;7.30;;;6.80;;
73841;SDS011;62184;52.006;5.924;2023-08-07T03:23:47;7.75;;;7.25;;
73841;SDS011;62184;52.006;5.924;2023-08-07T03:26:14;7.60;;;7.10;;
73841;SDS011;62184;52.006;5.924;2023-08-07T03:28:40;7.60;;;7.10;;
73841;SDS011;62184;52.006;5.924;2023-08-07T03:31:07;7.50;;;7.00;;
73841;SDS011;62184;52.006;5.924;2023-08-07T03:33:33;7.32;;;6.82;;
73841;SDS011;62184;52.006;5.924;2023-08-07T03:36:00;7.30;;;6.80;;
73841;SDS011;62184;52.006;5.924;2023-08-07T03:38:29;7.15;;;6.65;;
73841;SDS011;62184;52.006;5.924;2023-08-07T03:40:55;7.25;;;6.75;;
73841;SDS011;62184;52.006;5.924;2023-08-07T03:43:22;7.00;;;6.50;;
73841;SDS011;62184;52.006;5.924;2023-08-07T03:45:53;7.43;;;6.93;;
73841;SDS011;62184;52.006;5.924;2023-08-07T03:48:20;7.47;;;6.97;;
73841;SDS011;62184;52.006;5.924;2023-08-07T03:50:47;7.53;;;7.03;;
73841;SDS011;62184;52.006;5.924;2023-08-07T03:53:13;7.43;;;6.93;;
73841;SDS011;62184;52.006;5.924;2023-08-07T03:55:42;7.18;;;6.68;;
73841;SDS011;62184;52.006;5.924;2023-08-07T03:58:14;7.55;;;7.05;;
73841;SDS011;62184;52.006;5.924;2023-08-07T04:00:41;7.70;;;7.20;;
73841;SDS011;62184;52.006;5.924;2023-08-07T04:03:07;8.00;;;7.50;;
73841;SDS011;62184;52.006;5.924;2023-08-07T04:05:33;9.88;;;9.27;;
73841;SDS011;62184;52.006;5.924;2023-08-07T04:08:00;7.80;;;7.30;;
73841;SDS011;62184;52.006;5.924;2023-08-07T04:10:26;8.00;;;7.50;;
73841;SDS011;62184;52.006;5.924;2023-08-07T04:12:56;7.78;;;7.28;;
73841;SDS011;62184;52.006;5.924;2023-08-07T04:15:22;8.48;;;7.90;;
73841;SDS011;62184;52.006;5.924;2023-08-07T04:17:49;8.52;;;7.93;;
73841;SDS011;62184;52.006;5.924;2023-08-07T04:20:15;8.20;;;7.70;;
73841;SDS011;62184;52.006;5.924;2023-08-07T04:22:42;7.70;;;7.20;;
73841;SDS011;62184;52.006;5.924;2023-08-07T04:25:08;7.68;;;7.18;;
73841;SDS011;62184;52.006;5.924;2023-08-07T04:27:35;8.15;;;7.65;;
73841;SDS011;62184;52.006;5.924;2023-08-07T04:30:05;7.85;;;7.35;;
73841;SDS011;62184;52.006;5.924;2023-08-07T04:32:33;8.15;;;7.65;;
73841;SDS011;62184;52.006;5.924;2023-08-07T04:34:59;8.77;;;8.18;;
73841;SDS011;62184;52.006;5.924;2023-08-07T04:37:26;8.85;;;8.25;;
73841;SDS011;62184;52.006;5.924;2023-08-07T04:39:52;8.65;;;8.05;;
73841;SDS011;62184;52.006;5.924;2023-08-07T04:42:19;9.30;;;8.70;;
73841;SDS011;62184;52.006;5.924;2023-08-07T04:44:45;8.00;;;7.50;;
73841;SDS011;62184;52.006;5.924;2023-08-07T04:47:15;8.27;;;7.78;;
73841;SDS011;62184;52.006;5.924;2023-08-07T04:49:42;8.50;;;7.90;;
73841;SDS011;62184;52.006;5.924;2023-08-07T04:52:08;8.07;;;7.57;;
73841;SDS011;62184;52.006;5.924;2023-08-07T04:54:35;8.20;;;7.70;;
73841;SDS011;62184;52.006;5.924;2023-08-07T04:57:01;8.27;;;7.78;;
73841;SDS011;62184;52.006;5.924;2023-08-07T04:59:28;7.90;;;7.40;;
73841;SDS011;62184;52.006;5.924;2023-08-07T05:01:55;8.00;;;7.50;;
73841;SDS011;62184;52.006;5.924;2023-08-07T05:04:24;7.25;;;6.75;;
73841;SDS011;62184;52.006;5.924;2023-08-07T05:06:50;7.50;;;7.00;;
73841;SDS011;62184;52.006;5.924;2023-08-07T05:09:17;7.65;;;7.15;;
73841;SDS011;62184;52.006;5.924;2023-08-07T05:11:44;7.53;;;7.03;;
73841;SDS011;62184;52.006;5.924;2023-08-07T05:14:10;7.50;;;7.00;;
73841;SDS011;62184;52.006;5.924;2023-08-07T05:16:37;7.72;;;7.22;;
73841;SDS011;62184;52.006;5.924;2023-08-07T05:19:03;7.85;;;7.35;;
73841;SDS011;62184;52.006;5.924;2023-08-07T05:21:32;7.55;;;7.05;;
73841;SDS011;62184;52.006;5.924;2023-08-07T05:23:59;7.38;;;6.88;;
73841;SDS011;62184;52.006;5.924;2023-08-07T05:26:25;7.90;;;7.40;;
73841;SDS011;62184;52.006;5.924;2023-08-07T05:28:52;7.60;;;7.10;;
73841;SDS011;62184;52.006;5.924;2023-08-07T05:31:18;8.03;;;7.53;;
73841;SDS011;62184;52.006;5.924;2023-08-07T05:33:45;8.13;;;7.63;;
73841;SDS011;62184;52.006;5.924;2023-08-07T05:36:11;8.50;;;7.90;;
73841;SDS011;62184;52.006;5.924;2023-08-07T05:38:40;8.70;;;8.10;;
73841;SDS011;62184;52.006;5.924;2023-08-07T05:41:08;9.07;;;8.48;;
73841;SDS011;62184;52.006;5.924;2023-08-07T05:43:35;8.20;;;7.70;;
73841;SDS011;62184;52.006;5.924;2023-08-07T05:46:01;8.02;;;7.53;;
73841;SDS011;62184;52.006;5.924;2023-08-07T05:48:28;8.80;;;8.20;;
73841;SDS011;62184;52.006;5.924;2023-08-07T05:50:54;8.75;;;8.15;;
73841;SDS011;62184;52.006;5.924;2023-08-07T05:53:21;8.80;;;8.20;;
73841;SDS011;62184;52.006;5.924;2023-08-07T05:55:50;8.80;;;8.20;;
73841;SDS011;62184;52.006;5.924;2023-08-07T05:58:16;9.45;;;8.85;;
73841;SDS011;62184;52.006;5.924;2023-08-07T06:00:43;9.07;;;8.47;;
73841;SDS011;62184;52.006;5.924;2023-08-07T06:03:09;9.20;;;8.60;;
73841;SDS011;62184;52.006;5.924;2023-08-07T06:05:35;8.90;;;8.30;;
73841;SDS011;62184;52.006;5.924;2023-08-07T06:08:02;9.20;;;8.60;;
73841;SDS011;62184;52.006;5.924;2023-08-07T06:10:29;9.00;;;8.40;;
73841;SDS011;62184;52.006;5.924;2023-08-07T06:12:58;8.80;;;8.20;;
73841;SDS011;62184;52.006;5.924;2023-08-07T06:15:24;8.90;;;8.30;;
73841;SDS011;62184;52.006;5.924;2023-08-07T06:17:51;8.77;;;8.17;;
73841;SDS011;62184;52.006;5.924;2023-08-07T06:20:17;9.68;;;9.07;;
73841;SDS011;62184;52.006;5.924;2023-08-07T06:22:44;9.90;;;9.30;;
73841;SDS011;62184;52.006;5.924;2023-08-07T06:25:10;9.18;;;8.57;;
73841;SDS011;62184;52.006;5.924;2023-08-07T06:27:37;9.45;;;8.85;;
73841;SDS011;62184;52.006;5.924;2023-08-07T06:30:06;9.10;;;8.50;;
73841;SDS011;62184;52.006;5.924;2023-08-07T06:32:34;8.80;;;8.20;;
73841;SDS011;62184;52.006;5.924;2023-08-07T06:35:00;9.00;;;8.40;;
73841;SDS011;62184;52.006;5.924;2023-08-07T06:37:27;8.98;;;8.38;;
73841;SDS011;62184;52.006;5.924;2023-08-07T06:39:53;9.07;;;8.48;;
73841;SDS011;62184;52.006;5.924;2023-08-07T06:42:20;9.02;;;8.43;;
73841;SDS011;62184;52.006;5.924;2023-08-07T06:44:46;9.30;;;8.70;;
73841;SDS011;62184;52.006;5.924;2023-08-07T06:47:15;9.52;;;8.93;;
73841;SDS011;62184;52.006;5.924;2023-08-07T06:49:42;9.80;;;9.20;;
73841;SDS011;62184;52.006;5.924;2023-08-07T06:52:08;9.68;;;9.07;;
73841;SDS011;62184;52.006;5.924;2023-08-07T06:54:35;8.80;;;8.20;;
73841;SDS011;62184;52.006;5.924;2023-08-07T06:57:01;8.50;;;7.90;;
73841;SDS011;62184;52.006;5.924;2023-08-07T06:59:28;8.40;;;7.80;;
73841;SDS011;62184;52.006;5.924;2023-08-07T07:01:55;7.90;;;7.40;;
73841;SDS011;62184;52.006;5.924;2023-08-07T07:04:24;8.20;;;7.60;;
73841;SDS011;62184;52.006;5.924;2023-08-07T07:06:50;7.63;;;7.13;;
73841;SDS011;62184;52.006;5.924;2023-08-07T07:09:17;7.80;;;7.30;;
73841;SDS011;62184;52.006;5.924;2023-08-07T07:11:43;8.20;;;7.60;;
73841;SDS011;62184;52.006;5.924;2023-08-07T07:14:10;7.80;;;7.30;;
73841;SDS011;62184;52.006;5.924;2023-08-07T07:16:36;7.63;;;7.13;;
73841;SDS011;62184;52.006;5.924;2023-08-07T07:19:03;7.60;;;7.10;;
73841;SDS011;62184;52.006;5.924;2023-08-07T07:21:33;7.40;;;6.90;;
73841;SDS011;62184;52.006;5.924;2023-08-07T07:23:59;7.60;;;7.10;;
73841;SDS011;62184;52.006;5.924;2023-08-07T07:26:26;7.60;;;7.10;;
73841;SDS011;62184;52.006;5.924;2023-08-07T07:28:53;7.40;;;6.90;;
73841;SDS011;62184;52.006;5.924;2023-08-07T07:31:19;7.67;;;7.17;;
73841;SDS011;62184;52.006;5.924;2023-08-07T07:33:46;7.78;;;7.28;;
73841;SDS011;62184;52.006;5.924;2023-08-07T07:36:15;7.82;;;7.32;;
73841;SDS011;62184;52.006;5.924;2023-08-07T07:38:45;7.65;;;7.15;;
73841;SDS011;62184;52.006;5.924;2023-08-07T07:41:12;7.40;;;6.90;;
73841;SDS011;62184;52.006;5.924;2023-08-07T07:43:39;7.70;;;7.20;;
73841;SDS011;62184;52.006;5.924;2023-08-07T07:46:05;7.72;;;7.22;;
73841;SDS011;62184;52.006;5.924;2023-08-07T07:48:32;7.55;;;7.05;;
73841;SDS011;62184;52.006;5.924;2023-08-07T07:50:58;7.93;;;7.43;;
73841;SDS011;62184;52.006;5.924;2023-08-07T07:53:25;7.82;;;7.32;;
73841;SDS011;62184;52.006;5.924;2023-08-07T07:55:55;7.88;;;7.32;;
73841;SDS011;62184;52.006;5.924;2023-08-07T07:58:21;7.50;;;7.00;;
73841;SDS011;62184;52.006;5.924;2023-08-07T08:00:49;7.72;;;7.13;;
73841;SDS011;62184;52.006;5.924;2023-08-07T08:03:15;7.70;;;7.20;;
73841;SDS011;62184;52.006;5.924;2023-08-07T08:05:42;7.70;;;7.20;;
73841;SDS011;62184;52.006;5.924;2023-08-07T08:08:08;8.60;;;8.00;;
73841;SDS011;62184;52.006;5.924;2023-08-07T08:10:35;8.40;;;7.80;;
73841;SDS011;62184;52.006;5.924;2023-08-07T08:13:04;8.95;;;8.35;;
73841;SDS011;62184;52.006;5.924;2023-08-07T08:15:30;9.00;;;8.40;;
73841;SDS011;62184;52.006;5.924;2023-08-07T08:17:57;8.80;;;8.20;;
73841;SDS011;62184;52.006;5.924;2023-08-07T08:20:24;8.68;;;8.07;;
73841;SDS011;62184;52.006;5.924;2023-08-07T08:22:50;8.90;;;8.30;;
73841;SDS011;62184;52.006;5.924;2023-08-07T08:25:17;8.60;;;8.00;;
73841;SDS011;62184;52.006;5.924;2023-08-07T08:27:43;8.37;;;7.77;;
73841;SDS011;62184;52.006;5.924;2023-08-07T08:30:12;8.60;;;8.00;;
73841;SDS011;62184;52.006;5.924;2023-08-07T08:32:39;7.90;;;7.40;;
73841;SDS011;62184;52.006;5.924;2023-08-07T08:35:06;8.10;;;7.60;;
73841;SDS011;62184;52.006;5.924;2023-08-07T08:37:33;8.75;;;8.15;;
73841;SDS011;62184;52.006;5.924;2023-08-07T08:40:00;8.83;;;8.23;;
73841;SDS011;62184;52.006;5.924;2023-08-07T08:42:27;8.30;;;7.70;;
73841;SDS011;62184;52.006;5.924;2023-08-07T08:44:54;7.90;;;7.40;;
73841;SDS011;62184;52.006;5.924;2023-08-07T08:47:25;7.70;;;7.10;;
73841;SDS011;62184;52.006;5.924;2023-08-07T08:49:54;7.30;;;6.80;;
73841;SDS011;62184;52.006;5.924;2023-08-07T08:52:28;7.88;;;7.28;;
73841;SDS011;62184;52.006;5.924;2023-08-07T08:54:57;7.60;;;7.10;;
73841;SDS011;62184;52.006;5.924;2023-08-07T08:57:24;7.70;;;7.20;;
73841;SDS011;62184;52.006;5.924;2023-08-07T08:59:51;7.75;;;7.25;;
73841;SDS011;62184;52.006;5.924;2023-08-07T09:02:18;8.10;;;7.60;;
73841;SDS011;62184;52.006;5.924;2023-08-07T09:04:47;8.70;;;8.10;;
73841;SDS011;62184;52.006;5.924;2023-08-07T09:07:15;8.50;;;7.90;;
73841;SDS011;62184;52.006;5.924;2023-08-07T09:09:41;8.55;;;7.95;;
73841;SDS011;62184;52.006;5.924;2023-08-07T09:12:10;8.50;;;7.90;;
73841;SDS011;62184;52.006;5.924;2023-08-07T09:14:45;8.38;;;7.78;;
73841;SDS011;62184;52.006;5.924;2023-08-07T09:17:18;8.40;;;7.80;;
73841;SDS011;62184;52.006;5.924;2023-08-07T09:19:53;8.02;;;7.53;;
73841;SDS011;62184;52.006;5.924;2023-08-07T09:22:19;8.57;;;7.97;;
73841;SDS011;62184;52.006;5.924;2023-08-07T09:24:46;8.35;;;7.75;;
73841;SDS011;62184;52.006;5.924;2023-08-07T09:27:13;8.13;;;7.63;;
73841;SDS011;62184;52.006;5.924;2023-08-07T09:29:41;7.80;;;7.30;;
73841;SDS011;62184;52.006;5.924;2023-08-07T09:32:11;7.70;;;7.20;;
73841;SDS011;62184;52.006;5.924;2023-08-07T09:34:39;8.05;;;7.55;;
73841;SDS011;62184;52.006;5.924;2023-08-07T09:37:09;7.30;;;6.80;;
73841;SDS011;62184;52.006;5.924;2023-08-07T09:39:36;7.60;;;7.10;;
73841;SDS011;62184;52.006;5.924;2023-08-07T09:42:03;8.50;;;7.90;;
73841;SDS011;62184;52.006;5.924;2023-08-07T09:44:34;8.65;;;8.05;;
73841;SDS011;62184;52.006;5.924;2023-08-07T09:47:05;8.30;;;7.70;;
73841;SDS011;62184;52.006;5.924;2023-08-07T09:49:38;8.80;;;8.20;;
73841;SDS011;62184;52.006;5.924;2023-08-07T09:52:05;8.60;;;8.00;;
73841;SDS011;62184;52.006;5.924;2023-08-07T09:54:37;8.57;;;7.97;;
73841;SDS011;62184;52.006;5.924;2023-08-07T09:57:04;8.40;;;7.80;;
73841;SDS011;62184;52.006;5.924;2023-08-07T09:59:31;8.07;;;7.57;;
73841;SDS011;62184;52.006;5.924;2023-08-07T10:01:58;7.60;;;7.10;;
73841;SDS011;62184;52.006;5.924;2023-08-07T10:04:26;7.70;;;7.20;;
73841;SDS011;62184;52.006;5.924;2023-08-07T10:06:54;8.80;;;8.20;;
73841;SDS011;62184;52.006;5.924;2023-08-07T10:09:24;8.60;;;8.00;;
73841;SDS011;62184;52.006;5.924;2023-08-07T10:11:53;8.40;;;7.80;;
73841;SDS011;62184;52.006;5.924;2023-08-07T10:14:21;7.65;;;7.15;;
73841;SDS011;62184;52.006;5.924;2023-08-07T10:16:48;7.50;;;7.00;;
73841;SDS011;62184;52.006;5.924;2023-08-07T10:19:15;7.53;;;7.03;;
73841;SDS011;62184;52.006;5.924;2023-08-07T10:21:42;7.50;;;7.00;;
73841;SDS011;62184;52.006;5.924;2023-08-07T10:24:10;7.55;;;7.05;;
73841;SDS011;62184;52.006;5.924;2023-08-07T10:26:44;7.75;;;7.25;;
73841;SDS011;62184;52.006;5.924;2023-08-07T10:29:16;7.40;;;6.90;;
73841;SDS011;62184;52.006;5.924;2023-08-07T10:31:46;7.17;;;6.67;;
73841;SDS011;62184;52.006;5.924;2023-08-07T10:34:15;7.27;;;6.77;;
73841;SDS011;62184;52.006;5.924;2023-08-07T10:36:41;7.47;;;6.97;;
73841;SDS011;62184;52.006;5.924;2023-08-07T10:39:08;7.00;;;6.50;;
73841;SDS011;62184;52.006;5.924;2023-08-07T10:41:41;7.40;;;6.90;;
73841;SDS011;62184;52.006;5.924;2023-08-07T10:44:18;6.85;;;6.35;;
73841;SDS011;62184;52.006;5.924;2023-08-07T10:46:46;6.90;;;6.40;;
73841;SDS011;62184;52.006;5.924;2023-08-07T10:49:31;7.20;;;6.70;;
73841;SDS011;62184;52.006;5.924;2023-08-07T10:52:02;7.50;;;7.00;;
73841;SDS011;62184;52.006;5.924;2023-08-07T10:54:36;7.60;;;7.10;;
73841;SDS011;62184;52.006;5.924;2023-08-07T10:57:06;7.20;;;6.70;;
73841;SDS011;62184;52.006;5.924;2023-08-07T10:59:37;7.00;;;6.50;;
73841;SDS011;62184;52.006;5.924;2023-08-07T11:02:04;6.57;;;6.07;;
73841;SDS011;62184;52.006;5.924;2023-08-07T11:04:38;6.40;;;5.90;;
73841;SDS011;62184;52.006;5.924;2023-08-07T11:07:05;6.87;;;6.37;;
73841;SDS011;62184;52.006;5.924;2023-08-07T11:09:33;6.83;;;6.33;;
73841;SDS011;62184;52.006;5.924;2023-08-07T11:12:00;6.90;;;6.40;;
73841;SDS011;62184;52.006;5.924;2023-08-07T11:14:29;7.03;;;6.53;;
73841;SDS011;62184;52.006;5.924;2023-08-07T11:16:55;6.40;;;5.90;;
73841;SDS011;62184;52.006;5.924;2023-08-07T11:19:22;6.60;;;6.10;;
73841;SDS011;62184;52.006;5.924;2023-08-07T11:21:49;6.55;;;6.05;;
73841;SDS011;62184;52.006;5.924;2023-08-07T11:24:15;7.20;;;6.70;;
73841;SDS011;62184;52.006;5.924;2023-08-07T11:26:42;6.55;;;6.05;;
73841;SDS011;62184;52.006;5.924;2023-08-07T11:29:10;6.63;;;6.13;;
73841;SDS011;62184;52.006;5.924;2023-08-07T11:31:44;6.70;;;6.20;;
73841;SDS011;62184;52.006;5.924;2023-08-07T11:34:11;6.80;;;6.30;;
73841;SDS011;62184;52.006;5.924;2023-08-07T11:36:40;7.13;;;6.63;;
73841;SDS011;62184;52.006;5.924;2023-08-07T11:39:08;7.20;;;6.70;;
73841;SDS011;62184;52.006;5.924;2023-08-07T11:41:34;7.65;;;7.15;;
73841;SDS011;62184;52.006;5.924;2023-08-07T11:44:01;6.80;;;6.30;;
73841;SDS011;62184;52.006;5.924;2023-08-07T11:46:27;7.30;;;6.70;;
73841;SDS011;62184;52.006;5.924;2023-08-07T11:48:57;6.50;;;6.00;;
73841;SDS011;62184;52.006;5.924;2023-08-07T11:51:24;6.40;;;5.90;;
73841;SDS011;62184;52.006;5.924;2023-08-07T11:53:51;6.38;;;5.88;;
73841;SDS011;62184;52.006;5.924;2023-08-07T11:56:18;6.60;;;6.10;;
73841;SDS011;62184;52.006;5.924;2023-08-07T11:58:47;6.90;;;6.40;;
73841;SDS011;62184;52.006;5.924;2023-08-07T12:01:15;8.65;;;8.05;;
73841;SDS011;62184;52.006;5.924;2023-08-07T12:03:49;8.00;;;7.50;;
73841;SDS011;62184;52.006;5.924;2023-08-07T12:06:21;7.70;;;7.20;;
73841;SDS011;62184;52.006;5.924;2023-08-07T12:08:49;8.20;;;7.70;;
73841;SDS011;62184;52.006;5.924;2023-08-07T12:11:20;8.40;;;7.90;;
73841;SDS011;62184;52.006;5.924;2023-08-07T12:13:47;7.43;;;6.93;;
73841;SDS011;62184;52.006;5.924;2023-08-07T12:16:15;7.45;;;6.95;;
73841;SDS011;62184;52.006;5.924;2023-08-07T12:18:43;6.45;;;5.95;;
73841;SDS011;62184;52.006;5.924;2023-08-07T12:21:10;6.57;;;6.07;;
73841;SDS011;62184;52.006;5.924;2023-08-07T12:23:43;7.15;;;6.65;;
73841;SDS011;62184;52.006;5.924;2023-08-07T12:26:10;7.57;;;7.07;;
73841;SDS011;62184;52.006;5.924;2023-08-07T12:28:37;7.43;;;6.93;;
73841;SDS011;62184;52.006;5.924;2023-08-07T12:31:03;7.60;;;7.00;;
73841;SDS011;62184;52.006;5.924;2023-08-07T12:33:30;7.10;;;6.60;;
73841;SDS011;62184;52.006;5.924;2023-08-07T12:35:57;6.90;;;6.40;;
73841;SDS011;62184;52.006;5.924;2023-08-07T12:38:24;6.93;;;6.43;;
73841;SDS011;62184;52.006;5.924;2023-08-07T12:40:54;6.85;;;6.35;;
73841;SDS011;62184;52.006;5.924;2023-08-07T12:43:21;6.53;;;6.03;;
73841;SDS011;62184;52.006;5.924;2023-08-07T12:45:47;6.43;;;5.93;;
73841;SDS011;62184;52.006;5.924;2023-08-07T12:48:14;6.60;;;6.10;;
73841;SDS011;62184;52.006;5.924;2023-08-07T12:50:41;6.78;;;6.28;;
73841;SDS011;62184;52.006;5.924;2023-08-07T12:53:07;6.70;;;6.20;;
73841;SDS011;62184;52.006;5.924;2023-08-07T12:55:34;6.60;;;6.10;;
73841;SDS011;62184;52.006;5.924;2023-08-07T12:58:03;7.20;;;6.70;;
73841;SDS011;62184;52.006;5.924;2023-08-07T13:00:29;6.40;;;5.90;;
73841;SDS011;62184;52.006;5.924;2023-08-07T13:02:56;6.53;;;6.03;;
73841;SDS011;62184;52.006;5.924;2023-08-07T13:05:23;6.70;;;6.20;;
73841;SDS011;62184;52.006;5.924;2023-08-07T13:07:50;6.80;;;6.30;;
73841;SDS011;62184;52.006;5.924;2023-08-07T13:10:17;6.80;;;6.30;;
73841;SDS011;62184;52.006;5.924;2023-08-07T13:12:44;6.30;;;5.80;;
73841;SDS011;62184;52.006;5.924;2023-08-07T13:15:16;6.55;;;6.05;;
73841;SDS011;62184;52.006;5.924;2023-08-07T13:17:43;6.63;;;6.13;;
73841;SDS011;62184;52.006;5.924;2023-08-07T13:20:10;6.43;;;5.93;;
73841;SDS011;62184;52.006;5.924;2023-08-07T13:22:39;6.18;;;5.68;;
73841;SDS011;62184;52.006;5.924;2023-08-07T13:25:07;6.40;;;5.90;;
73841;SDS011;62184;52.006;5.924;2023-08-07T13:27:36;6.40;;;5.90;;
73841;SDS011;62184;52.006;5.924;2023-08-07T13:30:04;6.60;;;6.10;;
73841;SDS011;62184;52.006;5.924;2023-08-07T13:32:35;6.70;;;6.20;;
73841;SDS011;62184;52.006;5.924;2023-08-07T13:35:02;6.82;;;6.32;;
73841;SDS011;62184;52.006;5.924;2023-08-07T13:37:30;6.50;;;6.00;;
73841;SDS011;62184;52.006;5.924;2023-08-07T13:39:56;6.93;;;6.43;;
73841;SDS011;62184;52.006;5.924;2023-08-07T13:42:23;6.65;;;6.15;;
73841;SDS011;62184;52.006;5.924;2023-08-07T13:44:50;6.77;;;6.27;;
73841;SDS011;62184;52.006;5.924;2023-08-07T13:47:17;6.50;;;6.00;;
73841;SDS011;62184;52.006;5.924;2023-08-07T13:49:46;6.25;;;5.75;;
73841;SDS011;62184;52.006;5.924;2023-08-07T13:52:13;5.80;;;5.40;;
73841;SDS011;62184;52.006;5.924;2023-08-07T13:54:39;6.10;;;5.60;;
73841;SDS011;62184;52.006;5.924;2023-08-07T13:57:06;5.97;;;5.47;;
73841;SDS011;62184;52.006;5.924;2023-08-07T13:59:32;6.20;;;5.70;;
73841;SDS011;62184;52.006;5.924;2023-08-07T14:01:59;6.22;;;5.72;;
73841;SDS011;62184;52.006;5.924;2023-08-07T14:04:25;6.30;;;5.80;;
73841;SDS011;62184;52.006;5.924;2023-08-07T14:06:54;5.70;;;5.30;;
73841;SDS011;62184;52.006;5.924;2023-08-07T14:09:21;5.70;;;5.30;;
73841;SDS011;62184;52.006;5.924;2023-08-07T14:11:47;5.53;;;5.13;;
73841;SDS011;62184;52.006;5.924;2023-08-07T14:14:14;5.90;;;5.50;;
73841;SDS011;62184;52.006;5.924;2023-08-07T14:16:40;6.10;;;5.60;;
73841;SDS011;62184;52.006;5.924;2023-08-07T14:19:07;5.60;;;5.20;;
73841;SDS011;62184;52.006;5.924;2023-08-07T14:21:33;5.70;;;5.30;;
73841;SDS011;62184;52.006;5.924;2023-08-07T14:24:02;6.05;;;5.55;;
73841;SDS011;62184;52.006;5.924;2023-08-07T14:26:30;6.13;;;5.65;;
73841;SDS011;62184;52.006;5.924;2023-08-07T14:28:57;5.90;;;5.50;;
73841;SDS011;62184;52.006;5.924;2023-08-07T14:31:23;6.38;;;5.88;;
73841;SDS011;62184;52.006;5.924;2023-08-07T14:33:50;6.10;;;5.60;;
73841;SDS011;62184;52.006;5.924;2023-08-07T14:36:16;6.50;;;6.00;;
73841;SDS011;62184;52.006;5.924;2023-08-07T14:38:43;6.60;;;6.10;;
73841;SDS011;62184;52.006;5.924;2023-08-07T14:41:12;6.25;;;5.75;;
73841;SDS011;62184;52.006;5.924;2023-08-07T14:43:38;6.20;;;5.70;;
73841;SDS011;62184;52.006;5.924;2023-08-07T14:46:05;6.30;;;5.80;;
73841;SDS011;62184;52.006;5.924;2023-08-07T14:48:31;6.27;;;5.77;;
73841;SDS011;62184;52.006;5.924;2023-08-07T14:50:57;6.18;;;5.68;;